Time;durP1;ratioP1;P1;durP2;ratioP2;P2;SDS_P1;SDS_P2;PMS_P1;PMS_P2;Temp;Humidity;BMP_temperature;BMP_pressure;BME280_temperature;BME280_humidity;BME280_pressure;Samples;Min_cycle;Max_cycle;Signal;HPM_P1;HPM_P2
2022/12/25 00:01:20;;;;;;;21.87;9.33;;;4.30;99.90;;;;;;4997595;28;20230;-79
2022/12/25 00:03:47;;;;;;;22.73;9.10;;;4.20;99.90;;;;;;5017053;28;20325;-80
2022/12/25 00:06:13;;;;;;;15.93;8.40;;;4.20;99.90;;;;;;5004839;28;20230;-79
2022/12/25 00:08:41;;;;;;;25.40;9.70;;;4.10;99.90;;;;;;5003862;28;20236;-80
2022/12/25 00:11:10;;;;;;;20.60;9.73;;;4.10;99.90;;;;;;5001953;28;20222;-80
2022/12/25 00:13:37;;;;;;;24.53;10.13;;;4.00;99.90;;;;;;4996765;28;20226;-79
2022/12/25 00:16:06;;;;;;;26.03;10.23;;;4.00;99.90;;;;;;5003210;28;20225;-79
2022/12/25 00:18:34;;;;;;;27.30;9.00;;;3.90;99.90;;;;;;4995379;28;20302;-79
2022/12/25 00:21:04;;;;;;;19.90;8.97;;;3.80;99.90;;;;;;5001558;28;20229;-78
2022/12/25 00:23:32;;;;;;;17.23;8.03;;;3.80;99.90;;;;;;4988380;28;20285;-79
2022/12/25 00:25:59;;;;;;;23.17;8.67;;;3.70;99.90;;;;;;5005443;28;20245;-79
2022/12/25 00:28:26;;;;;;;18.30;8.93;;;3.70;99.90;;;;;;4998542;28;20292;-78
2022/12/25 00:30:53;;;;;;;24.07;8.97;;;3.60;99.90;;;;;;5002426;28;20280;-79
2022/12/25 00:33:20;;;;;;;19.67;9.97;;;3.60;99.90;;;;;;4996933;28;20870;-79
2022/12/25 00:35:59;;;;;;;32.03;9.50;;;3.60;99.90;;;;;;5000060;28;20249;-79
2022/12/25 00:38:26;;;;;;;21.50;8.63;;;3.50;99.90;;;;;;5002601;28;20218;-79
2022/12/25 00:40:54;;;;;;;22.90;8.70;;;3.50;99.90;;;;;;5007054;28;20283;-80
2022/12/25 00:43:21;;;;;;;20.47;9.23;;;3.40;99.90;;;;;;4995082;28;20234;-79
2022/12/25 00:45:56;;;;;;;32.90;9.97;;;3.40;99.90;;;;;;4998399;28;20222;-79
2022/12/25 00:48:23;;;;;;;22.00;8.00;;;3.40;99.90;;;;;;4995575;28;20217;-79
2022/12/25 00:50:54;;;;;;;20.97;8.37;;;3.30;99.90;;;;;;5004767;28;20221;-79
2022/12/25 00:53:22;;;;;;;20.70;8.40;;;3.30;99.90;;;;;;5002020;28;20240;-79
2022/12/25 00:55:53;;;;;;;25.97;8.90;;;3.20;99.90;;;;;;4995814;28;20229;-79
2022/12/25 00:58:21;;;;;;;244.67;25.60;;;3.20;99.90;;;;;;4999220;28;20222;-79
2022/12/25 01:00:51;;;;;;;139.23;15.47;;;3.10;99.90;;;;;;5002149;28;20313;-79
2022/12/25 01:03:18;;;;;;;22.77;7.80;;;3.10;99.90;;;;;;4996340;28;20258;-79
2022/12/25 01:05:55;;;;;;;21.10;8.53;;;3.00;99.90;;;;;;5000647;28;20236;-79
2022/12/25 01:08:23;;;;;;;21.07;9.43;;;3.00;99.90;;;;;;4999415;28;20229;-79
2022/12/25 01:10:53;;;;;;;34.03;9.87;;;3.00;99.90;;;;;;5002096;28;20597;-79
2022/12/25 01:13:20;;;;;;;27.13;9.30;;;3.00;99.90;;;;;;4999109;28;20224;-79
2022/12/25 01:15:47;;;;;;;26.70;9.13;;;2.90;99.90;;;;;;4996151;28;20840;-79
2022/12/25 01:18:14;;;;;;;35.63;9.13;;;3.00;99.90;;;;;;4998952;28;20336;-79
2022/12/25 01:20:41;;;;;;;49.00;10.20;;;2.90;99.90;;;;;;5001616;28;20283;-78
2022/12/25 01:23:08;;;;;;;76.53;10.23;;;2.90;99.90;;;;;;5000688;28;20217;-79
2022/12/25 01:25:36;;;;;;;211.73;17.07;;;2.90;99.90;;;;;;5002989;28;20340;-79
2022/12/25 01:28:04;;;;;;;78.27;10.33;;;2.90;99.90;;;;;;5001678;28;20301;-79
2022/12/25 01:30:31;;;;;;;54.07;9.23;;;2.90;99.90;;;;;;5005006;28;20253;-79
2022/12/25 01:32:58;;;;;;;33.67;8.07;;;2.80;99.90;;;;;;4998417;28;20255;-79
2022/12/25 01:35:25;;;;;;;364.90;29.70;;;2.80;99.90;;;;;;4998053;28;20359;-78
2022/12/25 01:37:52;;;;;;;53.67;11.17;;;2.80;99.90;;;;;;5001487;28;20312;-79
2022/12/25 01:40:19;;;;;;;29.03;8.90;;;2.70;99.90;;;;;;5001645;28;20222;-78
2022/12/25 01:42:47;;;;;;;65.87;10.57;;;2.70;99.90;;;;;;5000912;28;20217;-79
2022/12/25 01:45:33;;;;;;;43.70;10.10;;;2.70;99.90;;;;;;4999325;28;20235;-78
2022/12/25 01:48:02;;;;;;;147.77;13.30;;;2.60;99.90;;;;;;4999021;28;20221;-78
2022/12/25 01:50:29;;;;;;;31.33;7.67;;;2.60;99.90;;;;;;5003515;28;20236;-79
2022/12/25 01:52:57;;;;;;;42.90;8.77;;;2.60;99.90;;;;;;5001881;28;20883;-78
2022/12/25 01:55:25;;;;;;;41.03;8.77;;;2.60;99.90;;;;;;5016451;28;20243;-79
2022/12/25 01:57:53;;;;;;;31.17;8.37;;;2.60;99.90;;;;;;5000917;28;20829;-79
2022/12/25 02:00:20;;;;;;;28.63;8.90;;;2.50;99.90;;;;;;5011888;28;20247;-78
2022/12/25 02:02:48;;;;;;;24.80;8.40;;;2.50;99.90;;;;;;5001015;28;20234;-78
2022/12/25 02:05:19;;;;;;;61.73;10.60;;;2.60;99.90;;;;;;5001313;28;21200;-79
2022/12/25 02:07:48;;;;;;;34.07;8.97;;;2.50;99.90;;;;;;4995407;28;20231;-79
2022/12/25 02:10:15;;;;;;;75.27;11.50;;;2.50;99.90;;;;;;4992831;28;20231;-79
2022/12/25 02:12:43;;;;;;;55.40;11.70;;;2.50;99.90;;;;;;4997056;28;20217;-79
2022/12/25 02:15:15;;;;;;;62.93;11.80;;;2.50;99.90;;;;;;4995842;28;20222;-79
2022/12/25 02:17:50;;;;;;;152.33;18.77;;;2.60;99.90;;;;;;5001140;28;20229;-79
2022/12/25 02:21:03;;;;;;;140.93;16.37;;;2.60;99.90;;;;;;4988114;28;20221;-80
2022/12/25 02:23:55;;;;;;;196.13;18.70;;;2.70;99.90;;;;;;4957404;28;20233;-80
2022/12/25 02:26:55;;;;;;;121.93;15.60;;;2.80;99.90;;;;;;4998318;28;20664;-79
2022/12/25 02:29:30;;;;;;;160.37;17.17;;;2.80;99.90;;;;;;4999575;28;20226;-79
2022/12/25 02:32:02;;;;;;;147.30;16.13;;;2.90;99.90;;;;;;5003937;28;20766;-79
2022/12/25 02:34:35;;;;;;;172.33;16.63;;;2.90;99.90;;;;;;5001984;28;20232;-80
2022/12/25 02:37:07;;;;;;;169.23;18.13;;;2.90;99.90;;;;;;5001775;28;21067;-79
2022/12/25 02:39:57;;;;;;;182.27;17.47;;;3.00;99.90;;;;;;4996117;28;20912;-80
2022/12/25 03:07:32;;;;;;;150.03;15.60;;;2.90;99.90;;;;;;5002379;28;20963;-79
2022/12/25 03:12:55;;;;;;;136.83;13.97;;;2.90;99.90;;;;;;4996656;28;20220;-79
2022/12/25 03:18:13;;;;;;;71.80;10.80;;;2.90;99.90;;;;;;5000146;28;20232;-79
2022/12/25 03:31:10;;;;;;;181.30;18.00;;;2.90;99.90;;;;;;4984630;28;20242;-79
2022/12/25 03:32:08;;;;;;;142.40;14.70;;;2.90;99.90;;;;;;5016324;28;20225;-79
2022/12/25 04:36:23;;;;;;;223.83;20.63;;;3.20;99.90;;;;;;5022973;28;20225;-79
2022/12/25 04:38:49;;;;;;;67.70;11.57;;;3.20;99.90;;;;;;5006415;28;20252;-80
2022/12/25 04:41:17;;;;;;;88.50;13.00;;;3.20;99.90;;;;;;5006204;28;20618;-79
2022/12/25 04:43:44;;;;;;;236.90;21.27;;;3.20;99.90;;;;;;4997719;28;20221;-78
2022/12/25 04:46:11;;;;;;;80.93;12.57;;;3.10;99.90;;;;;;5016779;28;20308;-80
2022/12/25 04:48:38;;;;;;;52.77;10.37;;;3.10;99.90;;;;;;5018016;28;20221;-80
2022/12/25 04:51:12;;;;;;;153.80;17.10;;;3.10;99.90;;;;;;5007900;28;20235;-79
2022/12/25 04:53:39;;;;;;;320.43;26.07;;;3.10;99.90;;;;;;5013354;28;20788;-79
2022/12/25 04:56:06;;;;;;;142.97;15.30;;;3.00;99.90;;;;;;5009150;28;20234;-78
2022/12/25 04:58:34;;;;;;;78.73;11.30;;;3.00;99.90;;;;;;4995819;28;20256;-78
2022/12/25 05:01:02;;;;;;;268.30;23.37;;;3.00;99.90;;;;;;5004987;28;20911;-79
2022/12/25 05:03:30;;;;;;;69.97;11.77;;;3.00;99.90;;;;;;4999064;28;20295;-79
2022/12/25 05:05:57;;;;;;;48.17;11.33;;;3.00;99.90;;;;;;5001123;28;20302;-80
2022/12/25 05:08:24;;;;;;;115.50;15.27;;;2.90;99.90;;;;;;4993919;28;20314;-79
2022/12/25 05:10:52;;;;;;;174.77;18.87;;;2.90;99.90;;;;;;5003199;28;20682;-79
2022/12/25 05:13:18;;;;;;;63.53;11.73;;;2.90;99.90;;;;;;5001035;28;20233;-79
2022/12/25 05:15:47;;;;;;;37.57;11.20;;;2.90;99.90;;;;;;5008674;28;20764;-79
2022/12/25 05:18:14;;;;;;;137.40;15.27;;;2.90;99.90;;;;;;5002837;28;20223;-80
2022/12/25 05:20:40;;;;;;;29.37;10.50;;;2.90;99.90;;;;;;5005415;28;20291;-80
2022/12/25 05:23:08;;;;;;;26.03;10.83;;;2.90;99.90;;;;;;5000999;28;20256;-80
2022/12/25 05:25:39;;;;;;;35.70;11.63;;;2.90;99.90;;;;;;5021386;28;20224;-81
2022/12/25 05:28:05;;;;;;;145.50;17.60;;;2.90;99.90;;;;;;5026531;28;20233;-79
2022/12/25 05:30:33;;;;;;;59.87;13.67;;;2.90;99.90;;;;;;5031196;28;20220;-80
2022/12/25 05:33:02;;;;;;;19.73;10.07;;;3.00;99.90;;;;;;5027794;28;20749;-79
2022/12/25 05:35:29;;;;;;;109.93;15.13;;;3.00;99.90;;;;;;5021886;28;20362;-79
2022/12/25 05:37:55;;;;;;;47.10;12.53;;;3.00;99.90;;;;;;5025578;28;20239;-79
2022/12/25 05:40:22;;;;;;;23.87;11.23;;;3.00;99.90;;;;;;5025214;28;20463;-81
2022/12/25 05:42:49;;;;;;;37.83;11.53;;;3.10;99.90;;;;;;5027081;28;20309;-81
2022/12/25 05:45:16;;;;;;;20.67;11.57;;;3.10;99.90;;;;;;5027118;28;20224;-80
2022/12/25 05:47:43;;;;;;;26.77;11.27;;;3.20;99.90;;;;;;5035552;28;20886;-80
2022/12/25 05:50:12;;;;;;;26.63;11.63;;;3.20;99.90;;;;;;5030999;28;20236;-80
2022/12/25 05:52:39;;;;;;;21.27;10.60;;;3.30;99.90;;;;;;5030718;28;20308;-80
2022/12/25 05:55:06;;;;;;;34.63;11.87;;;3.30;99.90;;;;;;5022637;28;20225;-80
2022/12/25 05:57:33;;;;;;;19.80;10.97;;;3.40;99.90;;;;;;5026462;28;20373;-81
2022/12/25 06:00:00;;;;;;;25.03;11.27;;;3.40;99.90;;;;;;5023864;28;20218;-80
2022/12/25 06:02:29;;;;;;;23.10;11.20;;;3.50;99.90;;;;;;5024878;28;20288;-80
2022/12/25 06:04:55;;;;;;;19.93;11.13;;;3.50;99.90;;;;;;5031323;28;20787;-81
2022/12/25 06:07:24;;;;;;;24.23;10.47;;;3.60;99.90;;;;;;5015975;28;20221;-80
2022/12/25 06:09:50;;;;;;;26.63;10.53;;;3.60;99.90;;;;;;5014917;28;20227;-81
2022/12/25 06:12:17;;;;;;;25.43;10.53;;;3.60;99.90;;;;;;5017819;28;20687;-79
2022/12/25 06:14:44;;;;;;;24.80;11.20;;;3.70;99.90;;;;;;5015742;28;20225;-80
2022/12/25 06:17:11;;;;;;;24.00;10.83;;;3.70;99.90;;;;;;5013962;28;20233;-80
2022/12/25 06:19:37;;;;;;;25.47;11.33;;;3.80;99.90;;;;;;5011884;28;20225;-81
2022/12/25 06:22:04;;;;;;;24.63;10.93;;;3.80;99.90;;;;;;5016769;28;20224;-80
2022/12/25 06:24:32;;;;;;;24.07;10.73;;;3.90;99.90;;;;;;5017524;28;20316;-79
2022/12/25 06:26:59;;;;;;;24.17;10.30;;;3.90;99.90;;;;;;5018391;28;20328;-80
2022/12/25 06:29:26;;;;;;;24.53;10.50;;;4.00;99.90;;;;;;5014221;28;20481;-79
2022/12/25 06:31:55;;;;;;;27.23;10.43;;;4.00;99.90;;;;;;5019249;28;20513;-80
2022/12/25 06:34:25;;;;;;;25.83;10.57;;;4.10;99.90;;;;;;5032663;28;20226;-79
2022/12/25 06:36:55;;;;;;;26.47;10.63;;;4.00;99.90;;;;;;5017257;28;20330;-80
2022/12/25 06:39:25;;;;;;;26.43;10.70;;;4.10;99.90;;;;;;5016785;28;20708;-80
2022/12/25 06:41:53;;;;;;;21.63;10.73;;;4.10;99.90;;;;;;5014884;28;20225;-80
2022/12/25 06:44:20;;;;;;;25.57;9.80;;;4.10;99.90;;;;;;5028556;28;20644;-80
2022/12/25 06:46:47;;;;;;;28.30;11.40;;;4.20;99.90;;;;;;5030554;28;20227;-79
2022/12/25 06:49:14;;;;;;;23.63;10.03;;;4.20;99.90;;;;;;5022848;28;20226;-80
2022/12/25 06:51:41;;;;;;;28.13;9.87;;;4.20;99.90;;;;;;5016307;28;20245;-79
2022/12/25 06:54:09;;;;;;;25.47;10.63;;;4.20;99.90;;;;;;5020952;28;20286;-79
2022/12/25 06:56:35;;;;;;;24.87;10.17;;;4.20;99.90;;;;;;5017424;28;20234;-79
2022/12/25 06:59:06;;;;;;;31.80;11.53;;;4.30;99.90;;;;;;5031812;28;20348;-79
2022/12/25 07:01:36;;;;;;;25.30;10.10;;;4.20;99.90;;;;;;5022323;28;20269;-79
2022/12/25 07:04:05;;;;;;;29.27;10.60;;;4.20;99.90;;;;;;5021994;28;20278;-80
2022/12/25 07:06:32;;;;;;;24.90;11.60;;;4.30;99.90;;;;;;5022940;28;20300;-78
2022/12/25 07:08:59;;;;;;;37.77;16.37;;;4.30;99.90;;;;;;5019001;28;20221;-79
2022/12/25 07:11:26;;;;;;;24.23;12.20;;;4.30;99.90;;;;;;5028328;28;20233;-80
2022/12/25 07:13:55;;;;;;;24.37;12.77;;;4.30;99.90;;;;;;5037433;28;21053;-80
2022/12/25 07:16:23;;;;;;;18.83;10.90;;;4.40;99.90;;;;;;5032945;28;20714;-80
2022/12/25 07:18:50;;;;;;;21.53;9.80;;;4.40;99.90;;;;;;5033033;28;20218;-79
2022/12/25 07:21:19;;;;;;;20.87;9.93;;;4.40;99.90;;;;;;5026504;28;20213;-79
2022/12/25 07:23:49;;;;;;;26.60;9.77;;;4.40;99.90;;;;;;5035331;28;20235;-79
2022/12/25 07:26:17;;;;;;;21.50;9.53;;;4.50;99.90;;;;;;5027072;28;20250;-79
2022/12/25 07:28:43;;;;;;;19.30;9.43;;;4.50;99.90;;;;;;5022247;28;20229;-80
2022/12/25 07:31:13;;;;;;;26.60;10.83;;;4.50;99.90;;;;;;5030287;28;20221;-81
2022/12/25 07:33:41;;;;;;;28.03;10.23;;;4.50;99.90;;;;;;5025848;28;20219;-80
2022/12/25 07:36:08;;;;;;;20.67;9.23;;;4.50;99.90;;;;;;5018529;28;20225;-80
2022/12/25 07:38:37;;;;;;;21.10;9.43;;;4.60;99.90;;;;;;5024641;28;20250;-81
2022/12/25 07:41:07;;;;;;;24.93;10.00;;;4.60;99.90;;;;;;5023044;28;20231;-81
2022/12/25 07:43:36;;;;;;;23.80;9.77;;;4.60;99.90;;;;;;5023786;28;20249;-81
2022/12/25 07:46:04;;;;;;;21.30;9.57;;;4.60;99.90;;;;;;5025546;28;20224;-80
2022/12/25 07:48:31;;;;;;;22.23;9.73;;;4.70;99.90;;;;;;5023218;28;20288;-80
2022/12/25 07:51:01;;;;;;;23.10;9.97;;;4.60;99.90;;;;;;5029309;28;20715;-81
2022/12/25 07:53:28;;;;;;;29.67;9.33;;;4.70;99.90;;;;;;5023362;28;20237;-81
2022/12/25 07:55:59;;;;;;;38.83;10.50;;;4.70;99.90;;;;;;5019360;28;20230;-80
2022/12/25 07:58:26;;;;;;;32.43;9.87;;;4.70;99.90;;;;;;5010824;28;20229;-82
2022/12/25 08:00:53;;;;;;;21.37;9.40;;;4.70;99.90;;;;;;5039789;28;20304;-78
2022/12/25 08:03:20;;;;;;;41.20;11.23;;;4.70;99.90;;;;;;5021929;28;20232;-80
2022/12/25 08:05:46;;;;;;;20.57;9.00;;;4.80;99.90;;;;;;5012805;28;20226;-79
2022/12/25 08:08:14;;;;;;;26.10;8.83;;;4.80;99.90;;;;;;5018081;28;20222;-79
2022/12/25 08:10:45;;;;;;;29.33;8.93;;;4.80;99.90;;;;;;5017510;28;20230;-79
2022/12/25 08:13:12;;;;;;;27.03;9.03;;;4.80;99.90;;;;;;5016319;28;20665;-81
2022/12/25 08:15:39;;;;;;;25.93;8.60;;;4.90;99.90;;;;;;5016898;28;20269;-79
2022/12/25 08:18:06;;;;;;;22.47;9.13;;;4.90;99.90;;;;;;5020771;28;20257;-79
2022/12/25 08:20:34;;;;;;;20.00;8.03;;;4.90;99.90;;;;;;5022636;28;20226;-80
2022/12/25 08:23:00;;;;;;;22.97;9.40;;;4.90;99.90;;;;;;5022492;28;20230;-80
2022/12/25 08:25:28;;;;;;;18.67;8.50;;;4.90;99.90;;;;;;5019747;28;20710;-81
2022/12/25 08:27:55;;;;;;;21.63;8.47;;;5.00;99.90;;;;;;5014426;28;20726;-81
2022/12/25 08:30:24;;;;;;;17.27;8.73;;;5.00;99.90;;;;;;5019892;28;20251;-80
2022/12/25 08:32:51;;;;;;;19.30;8.20;;;5.00;99.90;;;;;;5022866;28;20224;-79
2022/12/25 08:35:17;;;;;;;20.77;9.00;;;5.00;99.90;;;;;;5029059;28;20228;-79
2022/12/25 08:37:44;;;;;;;26.40;11.70;;;5.10;99.90;;;;;;5031601;28;20231;-79
2022/12/25 08:40:12;;;;;;;25.07;12.93;;;5.10;99.90;;;;;;5024368;28;20462;-78
2022/12/25 08:42:40;;;;;;;19.60;10.23;;;5.10;99.90;;;;;;5041831;28;20233;-79
2022/12/25 08:45:11;;;;;;;22.97;9.27;;;5.10;99.90;;;;;;5024943;28;20233;-80
2022/12/25 08:47:40;;;;;;;20.37;9.27;;;5.10;99.90;;;;;;5029378;28;20233;-79
2022/12/25 08:50:08;;;;;;;15.27;8.43;;;5.10;99.90;;;;;;5028445;28;20898;-79
2022/12/25 08:52:37;;;;;;;16.90;8.50;;;5.20;99.90;;;;;;5039978;28;20727;-79
2022/12/25 08:55:05;;;;;;;23.10;9.00;;;5.20;99.90;;;;;;5042889;28;20254;-79
2022/12/25 08:57:32;;;;;;;19.47;8.30;;;5.20;99.90;;;;;;5030969;28;20337;-80
2022/12/25 09:00:00;;;;;;;17.13;8.13;;;5.20;99.90;;;;;;5041127;28;20310;-78
2022/12/25 09:02:26;;;;;;;20.97;7.97;;;5.30;99.90;;;;;;5025636;28;20230;-78
2022/12/25 09:04:53;;;;;;;20.73;7.87;;;5.30;99.90;;;;;;5027486;28;20539;-80
2022/12/25 09:07:20;;;;;;;19.23;8.10;;;5.30;99.90;;;;;;5032120;28;20230;-80
2022/12/25 09:09:46;;;;;;;22.93;8.17;;;5.40;99.90;;;;;;5028451;28;20235;-80
2022/12/25 09:12:13;;;;;;;14.07;7.00;;;5.40;99.90;;;;;;5026131;28;20223;-79
2022/12/25 09:14:41;;;;;;;21.47;7.53;;;5.40;99.90;;;;;;5025497;28;20387;-79
2022/12/25 09:17:09;;;;;;;17.37;7.23;;;5.50;99.90;;;;;;5027615;28;20216;-80
2022/12/25 09:19:36;;;;;;;18.03;7.60;;;5.50;99.90;;;;;;5034555;28;21009;-79
2022/12/25 09:22:03;;;;;;;14.03;6.87;;;5.50;99.90;;;;;;5029989;28;20259;-81
2022/12/25 09:24:29;;;;;;;15.20;6.70;;;5.60;99.90;;;;;;5026328;28;20235;-80
2022/12/25 09:26:56;;;;;;;22.37;7.40;;;5.60;99.90;;;;;;5024956;28;20233;-79
2022/12/25 09:29:28;;;;;;;21.40;8.10;;;5.60;99.90;;;;;;5027236;28;20223;-80
2022/12/25 09:31:55;;;;;;;18.77;7.37;;;5.60;99.90;;;;;;5043283;28;20234;-79
2022/12/25 09:34:23;;;;;;;17.43;8.70;;;5.60;99.90;;;;;;5014700;28;20238;-80
2022/12/25 09:36:50;;;;;;;19.60;9.43;;;5.70;99.90;;;;;;5038461;28;20228;-81
2022/12/25 09:39:16;;;;;;;19.03;9.73;;;5.60;99.90;;;;;;5013977;28;20298;-81
2022/12/25 09:41:52;;;;;;;19.23;6.57;;;5.70;99.90;;;;;;5031404;28;20521;-81
2022/12/25 09:44:23;;;;;;;21.10;10.00;;;5.70;99.90;;;;;;5011404;28;20227;-81
2022/12/25 09:46:53;;;;;;;15.27;7.07;;;5.70;99.90;;;;;;5020467;28;20320;-81
2022/12/25 09:49:28;;;;;;;19.50;7.13;;;5.70;99.90;;;;;;5016347;28;20541;-81
2022/12/25 09:51:59;;;;;;;15.10;6.13;;;5.80;99.90;;;;;;5015706;28;20455;-81
2022/12/25 09:54:38;;;;;;;13.87;6.53;;;5.80;99.90;;;;;;5013066;28;20228;-81
2022/12/25 09:57:06;;;;;;;18.47;8.47;;;5.80;99.90;;;;;;5008318;28;20218;-81
2022/12/25 09:59:32;;;;;;;14.87;7.03;;;5.80;99.90;;;;;;5000185;28;20234;-80
2022/12/25 10:02:22;;;;;;;18.30;6.77;;;5.80;99.90;;;;;;5017262;28;20586;-80
2022/12/25 10:05:08;;;;;;;16.33;6.63;;;5.90;99.90;;;;;;5017369;28;20239;-79
2022/12/25 10:07:46;;;;;;;16.90;6.50;;;5.90;99.90;;;;;;5020748;28;20338;-78
2022/12/25 10:10:32;;;;;;;17.20;6.77;;;5.90;99.90;;;;;;5018833;28;20241;-81
2022/12/25 10:13:09;;;;;;;13.63;7.17;;;5.90;99.90;;;;;;5019519;28;20235;-79
2022/12/25 10:15:51;;;;;;;17.27;6.90;;;6.00;99.90;;;;;;5022652;28;20240;-79
2022/12/25 10:18:36;;;;;;;15.10;6.60;;;6.00;99.90;;;;;;5022115;28;20222;-80
2022/12/25 10:21:08;;;;;;;19.40;6.43;;;6.00;99.90;;;;;;5022749;28;20744;-80
2022/12/25 10:23:40;;;;;;;15.83;6.53;;;6.00;99.90;;;;;;5021628;28;20236;-80
2022/12/25 10:26:15;;;;;;;19.80;6.60;;;6.10;99.90;;;;;;5020718;28;20679;-80
2022/12/25 10:28:44;;;;;;;17.80;6.47;;;6.10;99.90;;;;;;5020346;28;20229;-79
2022/12/25 10:31:19;;;;;;;12.30;5.83;;;6.10;99.90;;;;;;5021189;28;20306;-80
2022/12/25 10:33:46;;;;;;;12.23;6.00;;;6.10;99.90;;;;;;5021888;28;20244;-79
2022/12/25 10:36:15;;;;;;;14.17;6.60;;;6.10;99.90;;;;;;5037463;28;20590;-80
2022/12/25 10:38:42;;;;;;;17.30;6.73;;;6.20;99.90;;;;;;5022422;28;20325;-84
2022/12/25 10:41:21;;;;;;;14.93;6.70;;;6.20;99.90;;;;;;5010055;28;20229;-84
2022/12/25 10:43:50;;;;;;;16.13;5.73;;;6.20;99.90;;;;;;5014954;28;20711;-84
2022/12/25 10:46:19;;;;;;;12.63;5.93;;;6.20;99.90;;;;;;5022065;28;20234;-84
2022/12/25 10:48:49;;;;;;;14.30;6.00;;;6.20;99.90;;;;;;5022213;28;20255;-82
2022/12/25 10:51:32;;;;;;;14.43;6.63;;;6.20;99.90;;;;;;5032155;28;20244;-82
2022/12/25 10:53:59;;;;;;;16.53;6.43;;;6.20;99.90;;;;;;5022039;28;20232;-81
2022/12/25 10:56:27;;;;;;;12.50;5.57;;;6.20;99.90;;;;;;5023039;28;20301;-81
2022/12/25 10:59:04;;;;;;;14.57;5.50;;;6.30;99.90;;;;;;5017084;28;20281;-83
2022/12/25 11:01:31;;;;;;;12.67;5.33;;;6.30;99.90;;;;;;5020011;28;20221;-83
2022/12/25 11:03:58;;;;;;;13.03;5.83;;;6.30;99.90;;;;;;5018941;28;20230;-80
2022/12/25 11:06:28;;;;;;;16.67;6.00;;;6.40;99.90;;;;;;5019096;28;20229;-81
2022/12/25 11:08:58;;;;;;;17.80;5.70;;;6.40;99.90;;;;;;5016440;28;20225;-81
2022/12/25 11:11:26;;;;;;;10.97;5.33;;;6.30;99.90;;;;;;5019779;28;20227;-81
2022/12/25 11:13:57;;;;;;;12.60;6.43;;;6.40;99.90;;;;;;5015952;28;20532;-81
2022/12/25 11:16:30;;;;;;;15.37;5.63;;;6.40;99.90;;;;;;5029373;28;20231;-81
2022/12/25 11:18:58;;;;;;;15.07;5.93;;;6.40;99.90;;;;;;5013363;28;20231;-81
2022/12/25 11:21:28;;;;;;;13.93;5.23;;;6.40;99.90;;;;;;5031430;28;20733;-81
2022/12/25 11:23:59;;;;;;;14.23;5.67;;;6.40;99.90;;;;;;5019494;28;20236;-81
2022/12/25 11:26:29;;;;;;;12.63;6.40;;;6.50;99.90;;;;;;5011587;28;20553;-81
2022/12/25 11:28:56;;;;;;;18.80;7.40;;;6.50;99.90;;;;;;5015021;28;20600;-81
2022/12/25 11:31:32;;;;;;;13.43;5.97;;;6.50;99.90;;;;;;5015333;28;20217;-81
2022/12/25 11:34:05;;;;;;;16.87;5.83;;;6.50;99.90;;;;;;5030279;28;20466;-83
2022/12/25 11:36:44;;;;;;;14.23;5.60;;;6.50;99.90;;;;;;5024856;28;20225;-83
2022/12/25 11:39:19;;;;;;;16.10;6.43;;;6.50;99.90;;;;;;5039433;28;20242;-83
2022/12/25 11:41:51;;;;;;;14.03;5.73;;;6.60;99.90;;;;;;5021771;28;20241;-83
2022/12/25 11:44:27;;;;;;;17.83;6.57;;;6.60;99.90;;;;;;5014792;28;20231;-83
2022/12/25 11:46:55;;;;;;;14.40;6.57;;;6.60;99.90;;;;;;5020271;28;20836;-83
2022/12/25 11:49:22;;;;;;;12.20;5.40;;;6.60;99.90;;;;;;5017907;28;20224;-83
2022/12/25 11:51:56;;;;;;;15.93;6.17;;;6.70;99.90;;;;;;5021754;28;20255;-83
2022/12/25 11:54:26;;;;;;;12.57;6.03;;;6.60;99.90;;;;;;5024548;28;20303;-83
2022/12/25 11:56:57;;;;;;;13.83;6.37;;;6.70;99.90;;;;;;5019301;28;20257;-83
2022/12/25 11:59:28;;;;;;;15.03;6.47;;;6.70;99.90;;;;;;5027319;28;20230;-83
2022/12/25 12:01:58;;;;;;;14.17;6.27;;;6.70;99.90;;;;;;5027637;28;20227;-83
2022/12/25 12:04:29;;;;;;;18.13;7.47;;;6.70;99.90;;;;;;5023629;28;20231;-84
2022/12/25 12:07:04;;;;;;;19.37;6.87;;;6.70;99.90;;;;;;5027035;28;20229;-83
2022/12/25 12:09:44;;;;;;;17.73;11.00;;;6.70;99.90;;;;;;5014884;28;20733;-83
2022/12/25 12:12:18;;;;;;;14.37;6.83;;;6.70;99.90;;;;;;5024166;28;20335;-83
2022/12/25 12:14:53;;;;;;;15.43;7.60;;;6.70;99.90;;;;;;5020295;28;20252;-83
2022/12/25 12:17:20;;;;;;;19.60;8.03;;;6.70;99.90;;;;;;5013938;28;20904;-83
2022/12/25 12:19:46;;;;;;;16.97;7.90;;;6.70;99.90;;;;;;5012175;28;20231;-84
2022/12/25 12:22:24;;;;;;;17.47;7.80;;;6.70;99.90;;;;;;5014280;28;20918;-82
2022/12/25 12:24:57;;;;;;;29.10;21.07;;;6.70;99.90;;;;;;5011734;28;20234;-83
2022/12/25 12:27:27;;;;;;;21.67;9.03;;;6.70;99.90;;;;;;5011872;28;20241;-83
2022/12/25 12:29:57;;;;;;;21.20;8.97;;;6.60;99.90;;;;;;5018726;28;20223;-82
2022/12/25 12:32:38;;;;;;;13.97;7.00;;;6.60;99.90;;;;;;5027835;28;20232;-83
2022/12/25 12:35:09;;;;;;;17.20;11.17;;;6.60;99.90;;;;;;5024717;28;20238;-83
2022/12/25 12:37:40;;;;;;;12.07;7.10;;;6.60;99.90;;;;;;5032718;28;20236;-83
2022/12/25 12:40:24;;;;;;;15.53;7.30;;;6.60;99.90;;;;;;5028796;28;20236;-82
2022/12/25 12:42:51;;;;;;;15.73;8.57;;;6.60;99.90;;;;;;5013037;28;20225;-81
2022/12/25 12:45:23;;;;;;;15.90;7.07;;;6.60;99.90;;;;;;5036499;28;20656;-83
2022/12/25 12:47:51;;;;;;;16.47;9.43;;;6.60;99.90;;;;;;5021288;28;20657;-82
2022/12/25 12:50:31;;;;;;;17.40;7.60;;;6.60;99.90;;;;;;5043901;28;20309;-84
2022/12/25 12:53:00;;;;;;;19.30;11.07;;;6.60;99.90;;;;;;5028452;28;20236;-83
2022/12/25 12:55:33;;;;;;;24.30;9.80;;;6.60;99.90;;;;;;5021308;28;21243;-82
2022/12/25 12:58:02;;;;;;;15.90;7.63;;;6.60;99.90;;;;;;5043988;28;20243;-82
2022/12/25 13:00:38;;;;;;;18.77;7.60;;;6.70;99.90;;;;;;5035093;28;20233;-82
2022/12/25 13:03:30;;;;;;;13.37;7.40;;;6.60;99.90;;;;;;5027668;28;20827;-82
2022/12/25 13:06:01;;;;;;;15.53;7.07;;;6.70;99.90;;;;;;5021123;28;20777;-83
2022/12/25 13:08:45;;;;;;;12.70;6.80;;;6.70;99.90;;;;;;5025487;28;20238;-83
2022/12/25 13:11:18;;;;;;;14.63;7.10;;;6.70;99.90;;;;;;5022913;28;20390;-83
2022/12/25 13:13:46;;;;;;;18.60;7.33;;;6.70;99.90;;;;;;5021323;28;20232;-82
2022/12/25 13:16:22;;;;;;;15.73;6.57;;;6.70;99.90;;;;;;5031263;28;20345;-83
2022/12/25 13:18:51;;;;;;;18.03;7.10;;;6.70;99.90;;;;;;5041842;28;20278;-82
2022/12/25 13:21:21;;;;;;;14.20;7.33;;;6.70;99.90;;;;;;5034316;28;20327;-80
2022/12/25 13:23:57;;;;;;;14.97;7.20;;;6.70;99.90;;;;;;5015811;28;20816;-81
2022/12/25 13:26:23;;;;;;;272.53;190.37;;;6.70;99.90;;;;;;5016374;28;20224;-81
2022/12/25 13:28:50;;;;;;;60.70;33.47;;;6.60;99.90;;;;;;5027032;28;20224;-82
2022/12/25 13:31:19;;;;;;;56.53;49.87;;;6.70;99.90;;;;;;5021532;28;20285;-84
2022/12/25 13:33:49;;;;;;;20.00;16.87;;;6.70;99.90;;;;;;5023213;28;20228;-82
2022/12/25 13:36:17;;;;;;;19.07;8.13;;;6.70;99.90;;;;;;5024529;28;20829;-81
2022/12/25 13:38:44;;;;;;;13.90;7.40;;;6.70;99.90;;;;;;5023913;28;20312;-81
2022/12/25 13:44:13;;;;;;;17.57;7.17;;;6.70;99.90;;;;;;5032770;28;20260;-81
2022/12/25 13:46:40;;;;;;;15.50;8.33;;;6.70;99.90;;;;;;5017736;28;20232;-81
2022/12/25 13:49:13;;;;;;;14.70;7.70;;;6.70;99.90;;;;;;5016550;28;20224;-81
2022/12/25 13:51:40;;;;;;;20.00;7.87;;;6.70;99.90;;;;;;5017464;28;20229;-81
2022/12/25 13:54:09;;;;;;;14.00;6.67;;;6.70;99.90;;;;;;5017263;28;20405;-81
2022/12/25 13:56:37;;;;;;;16.50;6.73;;;6.70;99.90;;;;;;5019526;28;20224;-81
2022/12/25 13:59:04;;;;;;;18.17;8.70;;;6.70;99.90;;;;;;5026335;28;20223;-81
2022/12/25 14:01:30;;;;;;;76.63;69.10;;;6.70;99.90;;;;;;5022451;28;20570;-81
2022/12/25 14:03:57;;;;;;;25.20;19.73;;;6.70;99.90;;;;;;5020406;28;20236;-81
2022/12/25 14:06:28;;;;;;;13.07;7.77;;;6.70;99.90;;;;;;5018539;28;20858;-81
2022/12/25 14:08:57;;;;;;;22.53;10.20;;;6.70;99.90;;;;;;5017561;28;20243;-81
2022/12/25 14:11:26;;;;;;;14.60;6.47;;;6.70;99.90;;;;;;5020637;28;20237;-81
2022/12/25 14:13:59;;;;;;;14.47;7.00;;;6.70;99.90;;;;;;5024282;28;20640;-81
2022/12/25 14:16:27;;;;;;;15.77;6.90;;;6.70;99.90;;;;;;5019739;28;20660;-81
2022/12/25 14:18:58;;;;;;;13.83;6.70;;;6.70;99.90;;;;;;5015969;28;20304;-81
2022/12/25 14:21:31;;;;;;;16.03;7.33;;;6.70;99.90;;;;;;5017575;28;20239;-81
2022/12/25 14:23:59;;;;;;;15.40;7.13;;;6.70;99.90;;;;;;5015550;28;20800;-81
2022/12/25 14:26:27;;;;;;;14.47;6.90;;;6.60;99.90;;;;;;5025371;28;20423;-81
2022/12/25 14:29:07;;;;;;;12.67;6.60;;;6.60;99.90;;;;;;5023173;28;20245;-81
2022/12/25 14:31:34;;;;;;;13.07;6.40;;;6.60;99.90;;;;;;5012504;28;20243;-81
2022/12/25 14:34:03;;;;;;;16.83;6.90;;;6.70;99.90;;;;;;5018381;28;20229;-81
2022/12/25 14:36:31;;;;;;;16.93;6.53;;;6.60;99.90;;;;;;5022710;28;20222;-81
2022/12/25 14:38:59;;;;;;;19.87;9.73;;;6.60;99.90;;;;;;5023648;28;20223;-81
2022/12/25 14:41:36;;;;;;;19.50;8.53;;;6.70;99.90;;;;;;5016325;28;20823;-81